sensor_id;sensor_type;location;lat;lon;timestamp;pressure;altitude;pressure_sealevel;temperature;humidity
71966;BME280;59836;52.132;5.442;2023-05-10T00:00:59;100884.69;;;13.02;100.00
71966;BME280;59836;52.132;5.442;2023-05-10T00:03:26;100881.66;;;13.03;100.00
71966;BME280;59836;52.132;5.442;2023-05-10T00:05:53;100880.88;;;13.03;100.00
71966;BME280;59836;52.132;5.442;2023-05-10T00:08:20;100872.69;;;13.03;100.00
71966;BME280;59836;52.132;5.442;2023-05-10T00:10:47;100876.53;;;13.02;100.00
71966;BME280;59836;52.132;5.442;2023-05-10T00:13:13;100871.59;;;13.04;100.00
71966;BME280;59836;52.132;5.442;2023-05-10T00:15:40;100872.94;;;13.06;100.00
71966;BME280;59836;52.132;5.442;2023-05-10T00:18:06;100867.47;;;13.06;100.00
71966;BME280;59836;52.132;5.442;2023-05-10T00:20:36;100870.50;;;13.05;100.00
71966;BME280;59836;52.132;5.442;2023-05-10T00:23:02;100871.59;;;13.04;100.00
71966;BME280;59836;52.132;5.442;2023-05-10T00:25:34;100870.50;;;13.05;100.00
71966;BME280;59836;52.132;5.442;2023-05-10T00:28:00;100861.25;;;13.06;100.00
71966;BME280;59836;52.132;5.442;2023-05-10T00:30:28;100866.38;;;13.07;100.00
71966;BME280;59836;52.132;5.442;2023-05-10T00:32:54;100865.59;;;13.07;100.00
71966;BME280;59836;52.132;5.442;2023-05-10T00:35:21;100865.59;;;13.07;100.00
71966;BME280;59836;52.132;5.442;2023-05-10T00:37:52;100862.88;;;13.07;100.00
71966;BME280;59836;52.132;5.442;2023-05-10T00:40:19;100861.25;;;13.06;100.00
71966;BME280;59836;52.132;5.442;2023-05-10T00:42:45;100865.06;;;13.05;100.00
71966;BME280;59836;52.132;5.442;2023-05-10T00:45:12;100867.47;;;13.06;100.00
71966;BME280;59836;52.132;5.442;2023-05-10T00:47:40;100873.19;;;13.10;100.00
71966;BME280;59836;52.132;5.442;2023-05-10T00:50:07;100862.00;;;13.11;100.00
71966;BME280;59836;52.132;5.442;2023-05-10T00:52:35;100861.72;;;13.13;100.00
71966;BME280;59836;52.132;5.442;2023-05-10T00:55:02;100855.44;;;13.12;100.00
71966;BME280;59836;52.132;5.442;2023-05-10T00:57:29;100866.06;;;13.14;100.00
71966;BME280;59836;52.132;5.442;2023-05-10T00:59:57;100864.16;;;13.14;100.00
71966;BME280;59836;52.132;5.442;2023-05-10T01:02:24;100863.34;;;13.14;100.00
71966;BME280;59836;52.132;5.442;2023-05-10T01:04:50;100864.97;;;13.15;100.00
71966;BME280;59836;52.132;5.442;2023-05-10T01:07:18;100866.59;;;13.16;100.00
71966;BME280;59836;52.132;5.442;2023-05-10T01:09:45;100868.78;;;13.14;100.00
71966;BME280;59836;52.132;5.442;2023-05-10T01:12:11;100864.44;;;13.13;100.00
71966;BME280;59836;52.132;5.442;2023-05-10T01:14:38;100866.63;;;13.11;100.00
71966;BME280;59836;52.132;5.442;2023-05-10T01:17:05;100868.53;;;13.10;100.00
71966;BME280;59836;52.132;5.442;2023-05-10T01:19:34;100869.38;;;13.11;100.00
71966;BME280;59836;52.132;5.442;2023-05-10T01:25:02;100870.72;;;13.08;100.00
71966;BME280;59836;52.132;5.442;2023-05-10T01:27:46;100873.75;;;13.07;100.00
71966;BME280;59836;52.132;5.442;2023-05-10T01:30:27;100870.72;;;13.08;100.00
71966;BME280;59836;52.132;5.442;2023-05-10T01:33:11;100871.56;;;13.09;100.00
71966;BME280;59836;52.132;5.442;2023-05-10T01:35:45;100865.00;;;13.10;100.00
71966;BME280;59836;52.132;5.442;2023-05-10T01:38:38;100862.28;;;13.10;100.00
71966;BME280;59836;52.132;5.442;2023-05-10T01:41:25;100862.88;;;13.07;100.00
71966;BME280;59836;52.132;5.442;2023-05-10T01:43:58;100869.94;;;13.08;100.00
71966;BME280;59836;52.132;5.442;2023-05-10T01:46:35;100875.38;;;13.08;100.00
71966;BME280;59836;52.132;5.442;2023-05-10T01:49:08;100877.81;;;13.09;100.00
71966;BME280;59836;52.132;5.442;2023-05-10T01:51:40;100881.34;;;13.10;100.00
71966;BME280;59836;52.132;5.442;2023-05-10T01:54:09;100872.88;;;13.11;100.00
71966;BME280;59836;52.132;5.442;2023-05-10T01:56:39;100873.44;;;13.08;100.00
71966;BME280;59836;52.132;5.442;2023-05-10T01:59:12;100867.22;;;13.08;100.00
71966;BME280;59836;52.132;5.442;2023-05-10T02:01:39;100871.56;;;13.09;100.00
71966;BME280;59836;52.132;5.442;2023-05-10T02:04:08;100868.84;;;13.09;100.00
71966;BME280;59836;52.132;5.442;2023-05-10T02:06:38;100871.56;;;13.09;100.00
71966;BME280;59836;52.132;5.442;2023-05-10T02:09:06;100873.19;;;13.10;100.00
71966;BME280;59836;52.132;5.442;2023-05-10T02:11:34;100873.19;;;13.10;100.00
71966;BME280;59836;52.132;5.442;2023-05-10T02:14:01;100873.19;;;13.10;100.00
71966;BME280;59836;52.132;5.442;2023-05-10T02:16:28;100880.81;;;13.08;100.00
71966;BME280;59836;52.132;5.442;2023-05-10T02:18:58;100874.56;;;13.07;100.00
71966;BME280;59836;52.132;5.442;2023-05-10T02:21:28;100878.63;;;13.10;100.00
71966;BME280;59836;52.132;5.442;2023-05-10T02:23:56;100881.34;;;13.10;100.00
71966;BME280;59836;52.132;5.442;2023-05-10T02:26:24;100877.53;;;13.11;100.00
71966;BME280;59836;52.132;5.442;2023-05-10T02:28:53;100880.25;;;13.11;100.00
71966;BME280;59836;52.132;5.442;2023-05-10T02:31:21;100889.53;;;13.10;100.00
71966;BME280;59836;52.132;5.442;2023-05-10T02:33:48;100890.63;;;13.09;100.00
71966;BME280;59836;52.132;5.442;2023-05-10T02:36:16;100894.44;;;13.08;100.00
71966;BME280;59836;52.132;5.442;2023-05-10T02:38:44;100889.00;;;13.08;100.00
71966;BME280;59836;52.132;5.442;2023-05-10T02:41:11;100894.13;;;13.09;100.00
71966;BME280;59836;52.132;5.442;2023-05-10T02:43:39;100901.22;;;13.10;100.00
71966;BME280;59836;52.132;5.442;2023-05-10T02:46:06;100894.97;;;13.10;100.00
71966;BME280;59836;52.132;5.442;2023-05-10T02:48:33;100904.22;;;13.09;100.00
71966;BME280;59836;52.132;5.442;2023-05-10T02:51:04;100900.41;;;13.10;100.00
71966;BME280;59836;52.132;5.442;2023-05-10T02:53:33;100896.59;;;13.11;100.00
71966;BME280;59836;52.132;5.442;2023-05-10T02:56:04;100900.41;;;13.10;100.00
71966;BME280;59836;52.132;5.442;2023-05-10T02:58:33;100891.72;;;13.08;100.00
71966;BME280;59836;52.132;5.442;2023-05-10T03:01:00;100900.97;;;13.07;100.00
71966;BME280;59836;52.132;5.442;2023-05-10T03:03:26;100905.59;;;13.06;100.00
71966;BME280;59836;52.132;5.442;2023-05-10T03:05:53;100907.00;;;13.04;100.00
71966;BME280;59836;52.132;5.442;2023-05-10T03:08:23;100907.56;;;13.01;100.00
71966;BME280;59836;52.132;5.442;2023-05-10T03:14:07;100910.59;;;12.94;100.00
71966;BME280;59836;52.132;5.442;2023-05-10T03:16:47;100917.97;;;12.93;100.00
71966;BME280;59836;52.132;5.442;2023-05-10T03:19:31;100909.53;;;12.90;100.00
71966;BME280;59836;52.132;5.442;2023-05-10T03:21:59;100915.00;;;12.84;100.00
71966;BME280;59836;52.132;5.442;2023-05-10T03:24:29;100920.47;;;12.84;100.00
71966;BME280;59836;52.132;5.442;2023-05-10T03:26:58;100921.31;;;12.80;100.00
71966;BME280;59836;52.132;5.442;2023-05-10T03:29:29;100931.13;;;12.81;100.00
71966;BME280;59836;52.132;5.442;2023-05-10T03:32:00;100931.13;;;12.81;100.00
71966;BME280;59836;52.132;5.442;2023-05-10T03:34:26;100925.69;;;12.76;100.00
71966;BME280;59836;52.132;5.442;2023-05-10T03:36:52;100924.88;;;12.75;100.00
71966;BME280;59836;52.132;5.442;2023-05-10T03:39:19;100929.53;;;12.75;100.00
71966;BME280;59836;52.132;5.442;2023-05-10T03:41:47;100933.88;;;12.76;100.00
71966;BME280;59836;52.132;5.442;2023-05-10T03:44:13;100923.53;;;12.73;100.00
71966;BME280;59836;52.132;5.442;2023-05-10T03:46:40;100919.72;;;12.74;100.00
71966;BME280;59836;52.132;5.442;2023-05-10T03:49:06;100914.00;;;12.75;100.00
71966;BME280;59836;52.132;5.442;2023-05-10T03:51:33;100913.47;;;12.73;100.00
71966;BME280;59836;52.132;5.442;2023-05-10T03:53:59;100926.25;;;12.73;100.00
71966;BME280;59836;52.132;5.442;2023-05-10T03:56:25;100920.81;;;12.73;100.00
71966;BME280;59836;52.132;5.442;2023-05-10T03:58:52;100924.34;;;12.73;100.00
71966;BME280;59836;52.132;5.442;2023-05-10T04:01:18;100921.88;;;12.77;100.00
71966;BME280;59836;52.132;5.442;2023-05-10T04:03:45;100932.25;;;12.75;100.00
71966;BME280;59836;52.132;5.442;2023-05-10T04:06:11;100919.72;;;12.74;100.00
71966;BME280;59836;52.132;5.442;2023-05-10T04:08:38;100925.16;;;12.74;100.00
71966;BME280;59836;52.132;5.442;2023-05-10T04:11:09;100932.25;;;12.75;100.00
71966;BME280;59836;52.132;5.442;2023-05-10T04:13:35;100923.78;;;12.76;100.00
71966;BME280;59836;52.132;5.442;2023-05-10T04:16:02;100930.06;;;12.77;100.00
71966;BME280;59836;52.132;5.442;2023-05-10T04:18:29;100932.47;;;12.78;100.00
71966;BME280;59836;52.132;5.442;2023-05-10T04:20:55;100933.31;;;12.79;100.00
71966;BME280;59836;52.132;5.442;2023-05-10T04:23:21;100930.59;;;12.79;100.00
71966;BME280;59836;52.132;5.442;2023-05-10T04:25:48;100934.09;;;12.79;100.00
71966;BME280;59836;52.132;5.442;2023-05-10T04:28:14;100933.31;;;12.79;100.00
71966;BME280;59836;52.132;5.442;2023-05-10T04:30:41;100927.59;;;12.75;100.00
71966;BME280;59836;52.132;5.442;2023-05-10T04:33:07;100927.06;;;12.73;100.00
71966;BME280;59836;52.132;5.442;2023-05-10T04:35:34;100939.34;;;12.70;100.00
71966;BME280;59836;52.132;5.442;2023-05-10T04:38:01;100928.75;;;12.69;100.00
71966;BME280;59836;52.132;5.442;2023-05-10T04:40:27;100933.91;;;12.70;100.00
71966;BME280;59836;52.132;5.442;2023-05-10T04:42:53;100932.25;;;12.75;100.00
71966;BME280;59836;52.132;5.442;2023-05-10T04:45:20;100933.88;;;12.76;100.00
71966;BME280;59836;52.132;5.442;2023-05-10T04:47:47;100941.50;;;12.74;100.00
71966;BME280;59836;52.132;5.442;2023-05-10T04:50:13;100941.50;;;12.74;100.00
71966;BME280;59836;52.132;5.442;2023-05-10T04:52:40;100941.50;;;12.74;100.00
71966;BME280;59836;52.132;5.442;2023-05-10T04:55:06;100947.47;;;12.76;100.00
71966;BME280;59836;52.132;5.442;2023-05-10T04:57:35;100945.56;;;12.76;100.00
71966;BME280;59836;52.132;5.442;2023-05-10T05:00:02;100949.91;;;12.77;100.00
71966;BME280;59836;52.132;5.442;2023-05-10T05:02:29;100953.44;;;12.78;100.00
71966;BME280;59836;52.132;5.442;2023-05-10T05:04:56;100950.16;;;12.81;100.00
71966;BME280;59836;52.132;5.442;2023-05-10T05:07:23;100955.59;;;12.81;100.00
71966;BME280;59836;52.132;5.442;2023-05-10T05:09:50;100964.31;;;12.83;100.00
71966;BME280;59836;52.132;5.442;2023-05-10T05:12:16;100959.97;;;12.82;100.00
71966;BME280;59836;52.132;5.442;2023-05-10T05:14:45;100969.75;;;12.83;100.00
71966;BME280;59836;52.132;5.442;2023-05-10T05:17:19;100963.22;;;12.84;100.00
71966;BME280;59836;52.132;5.442;2023-05-10T05:19:45;100968.66;;;12.84;100.00
71966;BME280;59836;52.132;5.442;2023-05-10T05:22:23;100970.28;;;12.85;100.00
71966;BME280;59836;52.132;5.442;2023-05-10T05:24:56;100971.91;;;12.86;100.00
71966;BME280;59836;52.132;5.442;2023-05-10T05:27:24;100974.09;;;12.84;100.00
71966;BME280;59836;52.132;5.442;2023-05-10T05:29:53;100968.66;;;12.84;100.00
71966;BME280;59836;52.132;5.442;2023-05-10T05:32:19;100982.25;;;12.84;100.00
71966;BME280;59836;52.132;5.442;2023-05-10T05:34:46;100983.06;;;12.84;100.00
71966;BME280;59836;52.132;5.442;2023-05-10T05:37:19;100987.41;;;12.85;100.00
71966;BME280;59836;52.132;5.442;2023-05-10T05:39:46;100975.44;;;12.87;100.00
71966;BME280;59836;52.132;5.442;2023-05-10T05:42:13;100980.88;;;12.87;100.00
71966;BME280;59836;52.132;5.442;2023-05-10T05:44:39;100980.06;;;12.86;100.00
71966;BME280;59836;52.132;5.442;2023-05-10T05:47:06;100984.16;;;12.83;100.00
71966;BME280;59836;52.132;5.442;2023-05-10T05:49:33;100990.44;;;12.84;100.00
71966;BME280;59836;52.132;5.442;2023-05-10T05:52:03;100983.06;;;12.84;100.00
71966;BME280;59836;52.132;5.442;2023-05-10T05:54:30;100989.38;;;12.80;100.00
71966;BME280;59836;52.132;5.442;2023-05-10T05:56:57;100996.16;;;12.77;100.00
71966;BME280;59836;52.132;5.442;2023-05-10T05:59:27;100994.28;;;12.78;100.00
71966;BME280;59836;52.132;5.442;2023-05-10T06:01:53;101006.25;;;12.77;100.00
71966;BME280;59836;52.132;5.442;2023-05-10T06:04:20;100998.34;;;12.75;100.00
71966;BME280;59836;52.132;5.442;2023-05-10T06:06:46;101006.25;;;12.77;100.00
71966;BME280;59836;52.132;5.442;2023-05-10T06:09:13;101009.00;;;12.72;100.00
71966;BME280;59836;52.132;5.442;2023-05-10T06:11:39;101011.72;;;12.72;100.00
71966;BME280;59836;52.132;5.442;2023-05-10T06:14:06;101013.38;;;12.67;100.00
71966;BME280;59836;52.132;5.442;2023-05-10T06:16:34;101012.28;;;12.68;100.00
71966;BME280;59836;52.132;5.442;2023-05-10T06:19:02;101019.66;;;12.68;100.00
71966;BME280;59836;52.132;5.442;2023-05-10T06:21:28;101022.06;;;12.69;100.00
71966;BME280;59836;52.132;5.442;2023-05-10T06:23:55;101027.50;;;12.69;100.00
71966;BME280;59836;52.132;5.442;2023-05-10T06:26:21;101024.53;;;12.71;100.00
71966;BME280;59836;52.132;5.442;2023-05-10T06:28:48;101019.88;;;12.72;100.00
71966;BME280;59836;52.132;5.442;2023-05-10T06:31:14;101023.16;;;12.74;100.00
71966;BME280;59836;52.132;5.442;2023-05-10T06:33:41;101020.69;;;12.72;100.00
71966;BME280;59836;52.132;5.442;2023-05-10T06:36:07;101013.91;;;12.69;100.00
71966;BME280;59836;52.132;5.442;2023-05-10T06:38:34;101023.69;;;12.70;100.00
71966;BME280;59836;52.132;5.442;2023-05-10T06:41:00;101025.31;;;12.72;100.00
71966;BME280;59836;52.132;5.442;2023-05-10T06:43:27;101027.81;;;12.68;100.00
71966;BME280;59836;52.132;5.442;2023-05-10T06:45:54;101032.97;;;12.69;100.00
71966;BME280;59836;52.132;5.442;2023-05-10T06:48:21;101033.50;;;12.66;100.00
71966;BME280;59836;52.132;5.442;2023-05-10T06:50:48;101036.22;;;12.66;100.00
71966;BME280;59836;52.132;5.442;2023-05-10T06:53:14;101034.59;;;12.70;100.00
71966;BME280;59836;52.132;5.442;2023-05-10T06:55:41;101037.59;;;12.69;100.00
71966;BME280;59836;52.132;5.442;2023-05-10T06:58:07;101038.41;;;12.64;100.00
71966;BME280;59836;52.132;5.442;2023-05-10T07:00:34;101043.88;;;12.64;100.00
71966;BME280;59836;52.132;5.442;2023-05-10T07:03:00;101039.28;;;12.60;100.00
71966;BME280;59836;52.132;5.442;2023-05-10T07:05:27;101042.78;;;12.60;100.00
71966;BME280;59836;52.132;5.442;2023-05-10T07:07:54;101048.22;;;12.60;100.00
71966;BME280;59836;52.132;5.442;2023-05-10T07:10:20;101047.97;;;12.62;100.00
71966;BME280;59836;52.132;5.442;2023-05-10T07:12:47;101056.41;;;12.60;100.00
71966;BME280;59836;52.132;5.442;2023-05-10T07:15:13;101054.75;;;12.59;100.00
71966;BME280;59836;52.132;5.442;2023-05-10T07:17:40;101058.56;;;12.63;100.00
71966;BME280;59836;52.132;5.442;2023-05-10T07:20:10;101061.28;;;12.63;100.00
71966;BME280;59836;52.132;5.442;2023-05-10T07:22:36;101058.56;;;12.63;100.00
71966;BME280;59836;52.132;5.442;2023-05-10T07:25:03;101062.94;;;12.59;100.00
71966;BME280;59836;52.132;5.442;2023-05-10T07:27:30;101065.66;;;12.59;100.00
71966;BME280;59836;52.132;5.442;2023-05-10T07:29:56;101059.13;;;12.60;100.00
71966;BME280;59836;52.132;5.442;2023-05-10T07:32:23;101070.00;;;12.60;100.00
71966;BME280;59836;52.132;5.442;2023-05-10T07:34:49;101071.09;;;12.59;100.00
71966;BME280;59836;52.132;5.442;2023-05-10T07:37:16;101075.97;;;12.62;100.00
71966;BME280;59836;52.132;5.442;2023-05-10T07:39:42;101089.31;;;12.64;100.00
71966;BME280;59836;52.132;5.442;2023-05-10T07:42:09;101084.69;;;12.64;100.00
71966;BME280;59836;52.132;5.442;2023-05-10T07:44:35;101073.78;;;12.64;100.00
71966;BME280;59836;52.132;5.442;2023-05-10T07:47:01;101086.84;;;12.67;100.00
71966;BME280;59836;52.132;5.442;2023-05-10T07:49:28;101092.56;;;12.71;100.00
71966;BME280;59836;52.132;5.442;2023-05-10T07:51:54;101087.91;;;12.72;100.00
71966;BME280;59836;52.132;5.442;2023-05-10T07:54:21;101096.63;;;12.68;100.00
71966;BME280;59836;52.132;5.442;2023-05-10T07:56:47;101096.09;;;12.72;100.00
71966;BME280;59836;52.132;5.442;2023-05-10T07:59:16;101103.16;;;12.73;100.00
71966;BME280;59836;52.132;5.442;2023-05-10T08:01:43;101098.25;;;12.69;100.00
71966;BME280;59836;52.132;5.442;2023-05-10T08:04:09;101107.22;;;12.75;100.00
71966;BME280;59836;52.132;5.442;2023-05-10T08:06:36;101105.88;;;12.78;100.00
71966;BME280;59836;52.132;5.442;2023-05-10T08:09:02;101110.75;;;12.81;100.00
71966;BME280;59836;52.132;5.442;2023-05-10T08:11:29;101113.50;;;12.76;100.00
71966;BME280;59836;52.132;5.442;2023-05-10T08:13:55;101114.28;;;12.76;100.00
71966;BME280;59836;52.132;5.442;2023-05-10T08:16:22;101118.91;;;12.81;100.00
71966;BME280;59836;52.132;5.442;2023-05-10T08:18:48;101118.09;;;12.80;100.00
71966;BME280;59836;52.132;5.442;2023-05-10T08:21:16;101122.44;;;12.81;100.00
71966;BME280;59836;52.132;5.442;2023-05-10T08:23:43;101113.19;;;12.82;100.00
71966;BME280;59836;52.132;5.442;2023-05-10T08:26:10;101121.88;;;12.84;100.00
71966;BME280;59836;52.132;5.442;2023-05-10T08:28:37;101115.66;;;12.79;100.00
71966;BME280;59836;52.132;5.442;2023-05-10T08:31:04;101115.66;;;12.74;100.00
71966;BME280;59836;52.132;5.442;2023-05-10T08:33:30;101121.66;;;12.70;100.00
71966;BME280;59836;52.132;5.442;2023-05-10T08:35:57;101124.38;;;12.70;99.86
71966;BME280;59836;52.132;5.442;2023-05-10T08:38:23;101126.31;;;12.65;100.00
71966;BME280;59836;52.132;5.442;2023-05-10T08:40:54;101133.41;;;12.66;100.00
71966;BME280;59836;52.132;5.442;2023-05-10T08:43:28;101132.84;;;12.64;100.00
71966;BME280;59836;52.132;5.442;2023-05-10T08:45:55;101132.84;;;12.64;100.00
71966;BME280;59836;52.132;5.442;2023-05-10T08:48:25;101145.91;;;12.67;100.00
71966;BME280;59836;52.132;5.442;2023-05-10T08:50:53;101144.53;;;12.69;100.00
71966;BME280;59836;52.132;5.442;2023-05-10T08:53:24;101149.97;;;12.75;100.00
71966;BME280;59836;52.132;5.442;2023-05-10T08:55:52;101154.03;;;12.77;100.00
71966;BME280;59836;52.132;5.442;2023-05-10T08:58:19;101151.03;;;12.79;100.00
71966;BME280;59836;52.132;5.442;2023-05-10T09:00:49;101154.03;;;12.77;100.00
71966;BME280;59836;52.132;5.442;2023-05-10T09:03:18;101155.94;;;12.82;100.00
71966;BME280;59836;52.132;5.442;2023-05-10T09:05:46;101153.75;;;12.84;100.00
71966;BME280;59836;52.132;5.442;2023-05-10T09:08:13;101158.09;;;12.90;100.00
71966;BME280;59836;52.132;5.442;2023-05-10T09:10:43;101154.25;;;12.96;100.00
71966;BME280;59836;52.132;5.442;2023-05-10T09:13:10;101150.97;;;12.99;100.00
71966;BME280;59836;52.132;5.442;2023-05-10T09:15:38;101157.19;;;13.05;100.00
71966;BME280;59836;52.132;5.442;2023-05-10T09:18:04;101154.19;;;13.12;100.00
71966;BME280;59836;52.132;5.442;2023-05-10T09:20:31;101153.63;;;13.15;100.00
71966;BME280;59836;52.132;5.442;2023-05-10T09:22:57;101157.44;;;13.19;99.98
71966;BME280;59836;52.132;5.442;2023-05-10T09:25:24;101154.69;;;13.24;100.00
71966;BME280;59836;52.132;5.442;2023-05-10T09:27:52;101162.81;;;13.29;99.76
71966;BME280;59836;52.132;5.442;2023-05-10T09:30:27;101161.16;;;13.34;99.46
71966;BME280;59836;52.132;5.442;2023-05-10T09:32:54;101162.22;;;13.38;99.98
71966;BME280;59836;52.132;5.442;2023-05-10T09:35:23;101165.47;;;13.40;99.10
71966;BME280;59836;52.132;5.442;2023-05-10T09:37:55;101165.47;;;13.40;97.99
71966;BME280;59836;52.132;5.442;2023-05-10T09:40:24;101173.13;;;13.43;97.75
71966;BME280;59836;52.132;5.442;2023-05-10T09:45:24;101177.44;;;13.49;98.36
71966;BME280;59836;52.132;5.442;2023-05-10T09:47:52;101178.47;;;13.58;97.71
71966;BME280;59836;52.132;5.442;2023-05-10T09:50:19;101186.38;;;13.65;96.38
71966;BME280;59836;52.132;5.442;2023-05-10T09:52:51;101188.75;;;13.72;96.01
71966;BME280;59836;52.132;5.442;2023-05-10T09:55:20;101177.84;;;13.72;95.73
71966;BME280;59836;52.132;5.442;2023-05-10T09:57:49;101188.75;;;13.72;96.54
71966;BME280;59836;52.132;5.442;2023-05-10T10:00:24;101187.41;;;13.75;97.27
71966;BME280;59836;52.132;5.442;2023-05-10T10:02:58;101187.97;;;13.71;96.54
71966;BME280;59836;52.132;5.442;2023-05-10T10:05:32;101191.28;;;13.63;96.48
71966;BME280;59836;52.132;5.442;2023-05-10T10:08:00;101193.72;;;13.65;97.41
71966;BME280;59836;52.132;5.442;2023-05-10T10:10:27;101195.09;;;13.62;96.21
71966;BME280;59836;52.132;5.442;2023-05-10T10:12:54;101195.41;;;13.55;96.83
71966;BME280;59836;52.132;5.442;2023-05-10T10:15:22;101200.03;;;13.55;96.90
71966;BME280;59836;52.132;5.442;2023-05-10T10:17:49;101195.97;;;13.52;97.30
71966;BME280;59836;52.132;5.442;2023-05-10T10:20:16;101206.28;;;13.55;98.00
71966;BME280;59836;52.132;5.442;2023-05-10T10:22:44;101204.63;;;13.60;97.91
71966;BME280;59836;52.132;5.442;2023-05-10T10:25:11;101206.25;;;13.66;97.97
71966;BME280;59836;52.132;5.442;2023-05-10T10:27:46;101206.22;;;13.71;97.09
71966;BME280;59836;52.132;5.442;2023-05-10T10:33:13;101208.88;;;13.81;97.18
71966;BME280;59836;52.132;5.442;2023-05-10T10:35:54;101201.50;;;13.82;96.85
71966;BME280;59836;52.132;5.442;2023-05-10T10:38:21;101213.22;;;13.82;96.44
71966;BME280;59836;52.132;5.442;2023-05-10T10:41:01;101205.06;;;13.82;97.37
71966;BME280;59836;52.132;5.442;2023-05-10T10:43:28;101207.47;;;13.84;97.38
71966;BME280;59836;52.132;5.442;2023-05-10T10:46:16;101206.69;;;13.83;97.89
71966;BME280;59836;52.132;5.442;2023-05-10T10:48:48;101215.97;;;13.82;97.62
71966;BME280;59836;52.132;5.442;2023-05-10T10:51:16;101217.03;;;13.86;98.06
71966;BME280;59836;52.132;5.442;2023-05-10T10:53:42;101210.47;;;13.87;96.60
71966;BME280;59836;52.132;5.442;2023-05-10T10:56:11;101205.56;;;13.90;96.25
71966;BME280;59836;52.132;5.442;2023-05-10T10:58:40;101215.41;;;13.85;97.00
71966;BME280;59836;52.132;5.442;2023-05-10T11:01:18;101213.19;;;13.87;96.90
71966;BME280;59836;52.132;5.442;2023-05-10T11:06:30;101208.81;;;13.92;97.62
71966;BME280;59836;52.132;5.442;2023-05-10T11:08:58;101220.81;;;13.91;96.48
71966;BME280;59836;52.132;5.442;2023-05-10T11:11:24;101213.16;;;13.93;96.84
71966;BME280;59836;52.132;5.442;2023-05-10T11:13:51;101218.09;;;13.91;95.62
71966;BME280;59836;52.132;5.442;2023-05-10T11:16:20;101218.13;;;13.85;95.27
71966;BME280;59836;52.132;5.442;2023-05-10T11:18:57;101216.47;;;13.90;95.62
71966;BME280;59836;52.132;5.442;2023-05-10T11:21:24;101214.56;;;13.85;95.35
71966;BME280;59836;52.132;5.442;2023-05-10T11:23:55;101219.78;;;13.81;96.21
71966;BME280;59836;52.132;5.442;2023-05-10T11:26:33;101221.16;;;13.79;96.12
71966;BME280;59836;52.132;5.442;2023-05-10T11:29:00;101227.44;;;13.79;96.31
71966;BME280;59836;52.132;5.442;2023-05-10T11:31:28;101218.94;;;13.81;96.69
71966;BME280;59836;52.132;5.442;2023-05-10T11:33:58;101220.84;;;13.85;96.53
71966;BME280;59836;52.132;5.442;2023-05-10T11:36:27;101229.56;;;13.87;96.09
71966;BME280;59836;52.132;5.442;2023-05-10T11:38:55;101220.53;;;13.92;95.76
71966;BME280;59836;52.132;5.442;2023-05-10T11:41:22;101219.66;;;14.02;95.29
71966;BME280;59836;52.132;5.442;2023-05-10T11:43:50;101231.06;;;14.09;95.48
71966;BME280;59836;52.132;5.442;2023-05-10T11:46:19;101219.81;;;14.16;95.25
71966;BME280;59836;52.132;5.442;2023-05-10T11:48:49;101225.75;;;14.23;94.36
71966;BME280;59836;52.132;5.442;2023-05-10T11:51:21;101224.63;;;14.29;93.50
71966;BME280;59836;52.132;5.442;2023-05-10T11:53:49;101226.78;;;14.32;94.69
71966;BME280;59836;52.132;5.442;2023-05-10T11:56:16;101217.44;;;14.39;94.01
71966;BME280;59836;52.132;5.442;2023-05-10T11:58:43;101223.72;;;14.39;93.54
71966;BME280;59836;52.132;5.442;2023-05-10T12:01:10;101223.44;;;14.41;93.60
71966;BME280;59836;52.132;5.442;2023-05-10T12:03:37;101234.56;;;14.44;93.53
71966;BME280;59836;52.132;5.442;2023-05-10T12:06:04;101240.88;;;14.45;92.96
71966;BME280;59836;52.132;5.442;2023-05-10T12:08:31;101236.22;;;14.45;93.66
71966;BME280;59836;52.132;5.442;2023-05-10T12:11:08;101226.38;;;14.44;93.75
71966;BME280;59836;52.132;5.442;2023-05-10T12:13:40;101230.22;;;14.43;93.57
71966;BME280;59836;52.132;5.442;2023-05-10T12:16:18;101234.56;;;14.44;94.02
71966;BME280;59836;52.132;5.442;2023-05-10T12:18:45;101231.56;;;14.46;93.04
71966;BME280;59836;52.132;5.442;2023-05-10T12:21:14;101232.91;;;14.49;92.71
71966;BME280;59836;52.132;5.442;2023-05-10T12:23:41;101227.44;;;14.49;92.48
71966;BME280;59836;52.132;5.442;2023-05-10T12:26:11;101221.72;;;14.50;93.33
71966;BME280;59836;52.132;5.442;2023-05-10T12:28:38;101226.31;;;14.55;91.63
71966;BME280;59836;52.132;5.442;2023-05-10T12:31:06;101229.34;;;14.53;90.18
71966;BME280;59836;52.132;5.442;2023-05-10T12:33:41;101226.88;;;14.52;90.13
71966;BME280;59836;52.132;5.442;2023-05-10T12:36:09;101224.69;;;14.54;89.21
71966;BME280;59836;52.132;5.442;2023-05-10T12:38:38;101229.56;;;14.57;90.27
71966;BME280;59836;52.132;5.442;2023-05-10T12:41:14;101230.03;;;14.64;90.83
71966;BME280;59836;52.132;5.442;2023-05-10T12:43:41;101228.91;;;14.70;90.18
71966;BME280;59836;52.132;5.442;2023-05-10T12:46:09;101228.34;;;14.73;90.11
71966;BME280;59836;52.132;5.442;2023-05-10T12:48:37;101222.84;;;14.79;88.96
71966;BME280;59836;52.132;5.442;2023-05-10T12:51:04;101229.88;;;14.85;88.74
71966;BME280;59836;52.132;5.442;2023-05-10T12:53:31;101230.91;;;14.89;88.64
71966;BME280;59836;52.132;5.442;2023-05-10T12:55:57;101238.28;;;14.88;88.84
71966;BME280;59836;52.132;5.442;2023-05-10T12:58:24;101238.00;;;14.90;89.39
71966;BME280;59836;52.132;5.442;2023-05-10T13:01:01;101235.81;;;14.92;89.18
71966;BME280;59836;52.132;5.442;2023-05-10T13:03:27;101238.47;;;14.97;88.50